EGGD

Bristol International Airport

Bristol, United Kingdom
TAF EGGD 191059Z 1912/2012 21010KT 9999 SCT020 TEMPO 1916/2004 21015G25KT 3000 +SHRA BKN008 BKN015CB TEMPO 2004/2012 7000 SHRA BKN011
Issued Valid From Valid To
Dec-19 @ 10:59 UTC
(3 hours ago)
Dec-19 @ 12:00 UTC
(2 hours ago)
Dec-20 @ 12:00 UTC
(in 22 hours)
Dec-19 @ 12:00 to Dec-20 @ 12:00
TAF EGGD 191059Z 1912/2012 21010KT 9999 SCT020
Wind Visibility Clouds
210° at 10 knots 10,000+ meters
  • Scattered at 2,000' AGL
Temporary Dec-19 @ 16:00 to Dec-20 @ 04:00
TEMPO 1916/2004 21015G25KT 3000 +SHRA BKN008 BKN015CB
Wind Visibility Clouds Conditions
210° at 15 knots
 Gusting to 25 knots
2,993 meters
  • Broken at 800' AGL
  • Broken at 1,500' AGL
  • Heavy Rain
Temporary Dec-20 @ 04:00 to Dec-20 @ 12:00
TEMPO 2004/2012 7000 SHRA BKN011
Visibility Clouds Conditions
7,001 meters
  • Broken at 1,100' AGL
  • Rain
TAF EGGD 191059Z 1912/2012 21010KT 9999 SCT020 TEMPO 1916/2004 21015G25KT 3000 +SHRA BKN008 BKN015CB TEMPO 2004/2012 7000 SHRA BKN011
Issued Dec-19 @ 10:59 UTC
(3 hours ago)
Valid From Dec-19 @ 12:00 UTC
(2 hours ago)
Valid To Dec-20 @ 12:00 UTC
(in 22 hours)
Dec-19 @ 12:00 - Dec-20 @ 12:00
Wind Visibility
210° at 10 knots 10,000+ meters
Clouds
  • Scattered at 2,000' AGL
Temporary Dec-19 @ 16:00 - Dec-20 @ 04:00
Wind Visibility
210° at 15 knots
 Gusting to 25 knots
2,993 meters
Clouds
  • Broken at 800' AGL
  • Broken at 1,500' AGL
Conditions
  • Heavy Rain
Temporary Dec-20 @ 04:00 - Dec-20 @ 12:00
Clouds
  • Broken at 1,100' AGL
Conditions
  • Rain